Time;durP1;ratioP1;P1;durP2;ratioP2;P2;SDS_P1;SDS_P2;PMS_P1;PMS_P2;Temp;Humidity;BMP_temperature;BMP_pressure;BME280_temperature;BME280_humidity;BME280_pressure;Samples;Min_cycle;Max_cycle;Signal;HPM_P1;HPM_P2
2022/10/15 00:02:02;;;;;;;2.15;1.65;;;;;;;;;;5140451;27;20578;-68
2022/10/15 00:04:31;;;;;;;1.80;1.70;;;;;;;;;;5140551;27;20391;-69
2022/10/15 00:06:59;;;;;;;2.10;2.00;;;;;;;;;;5140205;27;20267;-69
2022/10/15 00:09:26;;;;;;;2.20;2.10;;;;;;;;;;5140243;27;20632;-69
2022/10/15 00:11:56;;;;;;;1.83;1.73;;;;;;;;;;5139501;27;20203;-69
2022/10/15 00:14:24;;;;;;;1.90;1.80;;;;;;;;;;5140349;27;20570;-69
2022/10/15 00:16:51;;;;;;;1.90;1.80;;;;;;;;;;5132141;27;20202;-69
2022/10/15 00:19:19;;;;;;;1.98;1.88;;;;;;;;;;5133670;27;20198;-68
2022/10/15 00:21:47;;;;;;;1.73;1.63;;;;;;;;;;5139551;27;20301;-69
2022/10/15 00:24:15;;;;;;;1.85;1.75;;;;;;;;;;5139471;27;20252;-69
2022/10/15 00:26:43;;;;;;;1.88;1.77;;;;;;;;;;5139396;27;20234;-68
2022/10/15 00:29:12;;;;;;;1.70;1.60;;;;;;;;;;5139720;27;20214;-68
2022/10/15 00:31:41;;;;;;;1.70;1.60;;;;;;;;;;5139755;27;20813;-68
2022/10/15 00:34:10;;;;;;;1.77;1.67;;;;;;;;;;5139589;27;20301;-69
2022/10/15 00:36:38;;;;;;;1.98;1.88;;;;;;;;;;5139581;27;20202;-69
2022/10/15 00:39:06;;;;;;;1.67;1.58;;;;;;;;;;5140206;27;20313;-69
2022/10/15 00:41:35;;;;;;;1.50;1.40;;;;;;;;;;5139366;27;20215;-69
2022/10/15 00:44:04;;;;;;;1.38;1.27;;;;;;;;;;5138498;27;20593;-69
2022/10/15 00:46:34;;;;;;;1.70;1.60;;;;;;;;;;5138209;27;20190;-69
2022/10/15 00:49:04;;;;;;;1.65;1.55;;;;;;;;;;5139786;27;20203;-69
2022/10/15 00:51:34;;;;;;;1.70;1.60;;;;;;;;;;5139536;27;20222;-69
2022/10/15 00:54:02;;;;;;;1.80;1.70;;;;;;;;;;5139763;27;20209;-69
2022/10/15 00:56:31;;;;;;;1.75;1.65;;;;;;;;;;5139355;27;20210;-69
2022/10/15 00:59:00;;;;;;;1.60;1.50;;;;;;;;;;5139427;27;20206;-69
2022/10/15 01:01:28;;;;;;;1.77;1.67;;;;;;;;;;5139123;27;20226;-69
2022/10/15 01:03:57;;;;;;;1.70;1.60;;;;;;;;;;5139497;27;20590;-68
2022/10/15 01:06:25;;;;;;;1.98;1.88;;;;;;;;;;5139426;27;20213;-69
2022/10/15 01:08:54;;;;;;;1.83;1.73;;;;;;;;;;5139302;27;20210;-68
2022/10/15 01:11:29;;;;;;;1.40;1.30;;;;;;;;;;5133842;27;20219;-69
2022/10/15 01:14:02;;;;;;;1.50;1.40;;;;;;;;;;5130354;27;20550;-68
2022/10/15 01:16:33;;;;;;;1.73;1.63;;;;;;;;;;5139370;27;20202;-69
2022/10/15 01:19:05;;;;;;;1.70;1.60;;;;;;;;;;5139212;27;20198;-70
2022/10/15 01:21:35;;;;;;;1.70;1.60;;;;;;;;;;5138271;27;20194;-69
2022/10/15 01:24:21;;;;;;;1.70;1.60;;;;;;;;;;5138710;27;20212;-69
2022/10/15 01:27:00;;;;;;;1.77;1.50;;;;;;;;;;5138162;27;20242;-69
2022/10/15 01:29:41;;;;;;;1.50;1.40;;;;;;;;;;5138447;27;20210;-70
2022/10/15 01:32:13;;;;;;;1.60;1.50;;;;;;;;;;5138597;27;20206;-69
2022/10/15 01:34:46;;;;;;;1.70;1.60;;;;;;;;;;5138630;27;20202;-69
2022/10/15 01:37:20;;;;;;;1.50;1.40;;;;;;;;;;5138545;27;20227;-69
2022/10/15 01:39:50;;;;;;;1.35;1.25;;;;;;;;;;5138266;27;20206;-69
2022/10/15 01:42:20;;;;;;;1.42;1.33;;;;;;;;;;5137837;28;20202;-69
2022/10/15 01:44:50;;;;;;;1.63;1.52;;;;;;;;;;5138510;28;20210;-69
2022/10/15 01:47:21;;;;;;;1.60;1.50;;;;;;;;;;5137986;28;20289;-70
2022/10/15 01:49:50;;;;;;;1.95;1.60;;;;;;;;;;5138325;28;20616;-69
2022/10/15 01:52:22;;;;;;;1.45;1.35;;;;;;;;;;5137597;28;20283;-69
2022/10/15 01:54:51;;;;;;;1.55;1.45;;;;;;;;;;5138310;28;20202;-69
2022/10/15 01:57:20;;;;;;;1.70;1.60;;;;;;;;;;5138314;28;20245;-69
2022/10/15 01:59:47;;;;;;;1.50;1.40;;;;;;;;;;5138678;28;20202;-69
2022/10/15 02:02:15;;;;;;;1.38;1.27;;;;;;;;;;5138338;28;20202;-69
2022/10/15 02:04:44;;;;;;;1.40;1.30;;;;;;;;;;5138268;28;20210;-70
2022/10/15 02:07:14;;;;;;;1.42;1.33;;;;;;;;;;5131604;28;20293;-69
2022/10/15 02:09:46;;;;;;;1.80;1.70;;;;;;;;;;5135085;28;20645;-69
2022/10/15 02:12:24;;;;;;;1.60;1.50;;;;;;;;;;5137067;28;20210;-70
2022/10/15 02:15:00;;;;;;;1.42;1.33;;;;;;;;;;5137562;28;20284;-69
2022/10/15 02:17:32;;;;;;;1.65;1.55;;;;;;;;;;5138487;28;20644;-70
2022/10/15 02:20:07;;;;;;;1.40;1.30;;;;;;;;;;5137554;28;20492;-69
2022/10/15 02:22:38;;;;;;;1.42;1.33;;;;;;;;;;5138520;28;20202;-69
2022/10/15 02:25:10;;;;;;;1.30;1.20;;;;;;;;;;5138409;28;20211;-70
2022/10/15 02:27:38;;;;;;;1.60;1.50;;;;;;;;;;5137840;28;20253;-70
2022/10/15 02:30:07;;;;;;;1.40;1.30;;;;;;;;;;5137611;28;20232;-69
2022/10/15 02:32:36;;;;;;;1.70;1.60;;;;;;;;;;5138067;28;20230;-68
2022/10/15 02:35:07;;;;;;;1.60;1.50;;;;;;;;;;5130994;27;20277;-68
2022/10/15 02:37:35;;;;;;;1.40;1.30;;;;;;;;;;5137738;27;20210;-68
2022/10/15 02:40:03;;;;;;;1.35;1.25;;;;;;;;;;5141268;27;20308;-69
2022/10/15 02:42:31;;;;;;;1.48;1.38;;;;;;;;;;5140984;27;20459;-68
2022/10/15 02:44:59;;;;;;;1.42;1.33;;;;;;;;;;5140940;27;20202;-70
2022/10/15 02:47:27;;;;;;;1.40;1.27;;;;;;;;;;5141228;27;20285;-71
2022/10/15 02:49:54;;;;;;;1.45;1.35;;;;;;;;;;5141661;27;20208;-68
2022/10/15 02:52:24;;;;;;;1.40;1.30;;;;;;;;;;5141002;27;20210;-68
2022/10/15 02:54:52;;;;;;;1.15;1.15;;;;;;;;;;5141081;27;20251;-69
2022/10/15 02:57:19;;;;;;;1.05;1.02;;;;;;;;;;5141298;27;20209;-71
2022/10/15 02:59:47;;;;;;;1.45;1.35;;;;;;;;;;5141597;27;20210;-71
2022/10/15 03:02:15;;;;;;;1.30;1.20;;;;;;;;;;5140521;27;20290;-69
2022/10/15 03:04:43;;;;;;;1.20;1.10;;;;;;;;;;5140779;27;20209;-70
2022/10/15 03:07:11;;;;;;;1.30;1.20;;;;;;;;;;5140408;27;20202;-69
2022/10/15 03:09:40;;;;;;;1.40;1.30;;;;;;;;;;5140515;27;20585;-70
2022/10/15 03:12:08;;;;;;;1.38;1.27;;;;;;;;;;5140136;27;20229;-70
2022/10/15 03:14:36;;;;;;;1.27;1.17;;;;;;;;;;5140444;27;20202;-69
2022/10/15 03:17:03;;;;;;;1.35;1.25;;;;;;;;;;5140674;27;20206;-69
2022/10/15 03:19:31;;;;;;;1.10;1.10;;;;;;;;;;5140657;27;20194;-69
2022/10/15 03:21:59;;;;;;;1.60;1.50;;;;;;;;;;5140876;27;20198;-69
2022/10/15 03:24:27;;;;;;;1.40;1.30;;;;;;;;;;5140785;27;20194;-69
2022/10/15 03:26:56;;;;;;;1.30;1.20;;;;;;;;;;5140383;27;20510;-69
2022/10/15 03:29:24;;;;;;;1.00;1.00;;;;;;;;;;5137955;27;20744;-69
2022/10/15 03:31:52;;;;;;;1.40;1.30;;;;;;;;;;5130958;27;20564;-69
2022/10/15 03:34:20;;;;;;;1.55;1.45;;;;;;;;;;5140483;27;20213;-69
2022/10/15 03:36:48;;;;;;;1.35;1.27;;;;;;;;;;5140565;27;20212;-68
2022/10/15 03:39:17;;;;;;;1.35;1.25;;;;;;;;;;5140736;27;20209;-69
2022/10/15 03:41:44;;;;;;;1.10;1.10;;;;;;;;;;5140321;27;20199;-69
2022/10/15 03:44:14;;;;;;;1.40;1.30;;;;;;;;;;5140104;27;20387;-70
2022/10/15 03:46:42;;;;;;;1.20;1.10;;;;;;;;;;5140144;27;20210;-70
2022/10/15 03:49:10;;;;;;;0.90;0.90;;;;;;;;;;5140279;27;20278;-71
2022/10/15 03:51:38;;;;;;;1.30;1.20;;;;;;;;;;5140458;27;20252;-70
2022/10/15 03:54:06;;;;;;;1.10;1.00;;;;;;;;;;5139698;27;20289;-70
2022/10/15 03:56:34;;;;;;;1.13;1.10;;;;;;;;;;5140258;27;20210;-71
2022/10/15 03:59:02;;;;;;;1.27;1.17;;;;;;;;;;5140057;27;20203;-70
2022/10/15 04:01:31;;;;;;;0.93;0.93;;;;;;;;;;5139966;27;20267;-70
2022/10/15 04:03:59;;;;;;;0.90;0.90;;;;;;;;;;5140186;27;20230;-69
2022/10/15 04:06:26;;;;;;;1.02;1.02;;;;;;;;;;5139638;27;20479;-68
2022/10/15 04:08:53;;;;;;;1.00;1.00;;;;;;;;;;5140184;27;20297;-68
2022/10/15 04:11:21;;;;;;;1.10;1.00;;;;;;;;;;5139536;27;20326;-70
2022/10/15 04:13:50;;;;;;;1.02;1.00;;;;;;;;;;5139809;27;20650;-68
2022/10/15 04:16:17;;;;;;;1.42;1.33;;;;;;;;;;5139358;27;20459;-70
2022/10/15 04:18:46;;;;;;;0.90;0.90;;;;;;;;;;5139925;27;20294;-70
2022/10/15 04:21:14;;;;;;;0.98;0.98;;;;;;;;;;5139351;27;20242;-69
2022/10/15 04:23:41;;;;;;;1.17;1.08;;;;;;;;;;5139439;27;20210;-68
2022/10/15 04:26:09;;;;;;;1.13;1.00;;;;;;;;;;5125629;27;20264;-70
2022/10/15 04:28:36;;;;;;;1.00;1.00;;;;;;;;;;5139328;27;20237;-68
2022/10/15 04:31:03;;;;;;;1.20;1.10;;;;;;;;;;5139520;27;20563;-69
2022/10/15 04:33:31;;;;;;;0.90;0.90;;;;;;;;;;5138693;27;20510;-69
2022/10/15 04:36:01;;;;;;;0.90;0.90;;;;;;;;;;5139179;27;20202;-71
2022/10/15 04:38:29;;;;;;;0.90;0.90;;;;;;;;;;5139570;27;20244;-69
2022/10/15 04:41:01;;;;;;;1.52;1.02;;;;;;;;;;5138913;27;20205;-68
2022/10/15 04:43:29;;;;;;;0.82;0.82;;;;;;;;;;5139457;27;20213;-69
2022/10/15 04:45:58;;;;;;;0.93;0.90;;;;;;;;;;5139579;27;20226;-69
2022/10/15 04:48:25;;;;;;;0.90;0.90;;;;;;;;;;5138652;27;20202;-68
2022/10/15 04:50:53;;;;;;;1.00;1.00;;;;;;;;;;5138915;27;20564;-69
2022/10/15 04:53:23;;;;;;;1.10;1.00;;;;;;;;;;5138486;27;20285;-70
2022/10/15 04:55:50;;;;;;;0.90;0.90;;;;;;;;;;5138713;27;20544;-69
2022/10/15 04:58:17;;;;;;;0.63;0.63;;;;;;;;;;5138310;27;20203;-69
2022/10/15 05:00:45;;;;;;;0.98;0.98;;;;;;;;;;5138528;27;20202;-67
2022/10/15 05:03:12;;;;;;;1.13;1.02;;;;;;;;;;5138925;27;20925;-68
2022/10/15 05:05:40;;;;;;;0.90;0.90;;;;;;;;;;5138784;27;20213;-67
2022/10/15 05:08:08;;;;;;;0.90;0.90;;;;;;;;;;5138845;27;20210;-66
2022/10/15 05:10:37;;;;;;;1.15;0.90;;;;;;;;;;5138051;27;20484;-68
2022/10/15 05:13:04;;;;;;;1.00;1.00;;;;;;;;;;5138426;27;20262;-67
2022/10/15 05:15:31;;;;;;;0.80;0.80;;;;;;;;;;5138826;27;20202;-67
2022/10/15 05:17:59;;;;;;;1.00;0.88;;;;;;;;;;5138040;27;20297;-68
2022/10/15 05:20:26;;;;;;;0.80;0.80;;;;;;;;;;5129401;27;20285;-68
2022/10/15 05:22:54;;;;;;;0.85;0.85;;;;;;;;;;5138136;27;20194;-67
2022/10/15 05:25:22;;;;;;;0.70;0.70;;;;;;;;;;5138057;27;20462;-68
2022/10/15 05:27:50;;;;;;;0.95;0.95;;;;;;;;;;5138208;27;20316;-67
2022/10/15 05:30:18;;;;;;;1.05;0.90;;;;;;;;;;5138623;27;20252;-67
2022/10/15 05:32:46;;;;;;;0.80;0.80;;;;;;;;;;5138373;27;20226;-69
2022/10/15 05:35:13;;;;;;;0.98;0.88;;;;;;;;;;5138549;27;20253;-67
2022/10/15 05:37:41;;;;;;;0.70;0.70;;;;;;;;;;5138209;28;20255;-67
2022/10/15 05:40:09;;;;;;;0.98;0.88;;;;;;;;;;5137677;28;20209;-66
2022/10/15 05:42:36;;;;;;;1.10;1.00;;;;;;;;;;5137845;28;20194;-68
2022/10/15 05:45:06;;;;;;;1.00;0.90;;;;;;;;;;5138459;28;20220;-66
2022/10/15 05:47:33;;;;;;;0.95;0.95;;;;;;;;;;5138486;28;20237;-67
2022/10/15 05:50:00;;;;;;;0.88;0.88;;;;;;;;;;5138513;28;20634;-68
2022/10/15 05:52:28;;;;;;;0.88;0.82;;;;;;;;;;5138650;28;20222;-66
2022/10/15 05:54:56;;;;;;;0.73;0.73;;;;;;;;;;5138442;28;20248;-66
2022/10/15 05:57:23;;;;;;;0.70;0.70;;;;;;;;;;5138714;28;20202;-68
2022/10/15 05:59:51;;;;;;;0.82;0.82;;;;;;;;;;5138955;28;20638;-67
2022/10/15 06:02:19;;;;;;;1.42;0.77;;;;;;;;;;5138426;28;20286;-67
2022/10/15 06:04:48;;;;;;;0.93;0.93;;;;;;;;;;5137929;28;20297;-67
2022/10/15 06:07:15;;;;;;;0.77;0.77;;;;;;;;;;5135392;28;20199;-67
2022/10/15 06:09:43;;;;;;;0.70;0.70;;;;;;;;;;5140225;27;20502;-67
2022/10/15 06:12:11;;;;;;;0.98;0.98;;;;;;;;;;5142586;27;20247;-67
2022/10/15 06:14:39;;;;;;;0.90;0.90;;;;;;;;;;5142182;27;20237;-67
2022/10/15 06:17:06;;;;;;;0.90;0.90;;;;;;;;;;5142096;27;20305;-67
2022/10/15 06:19:35;;;;;;;0.88;0.88;;;;;;;;;;5141853;27;20227;-67
2022/10/15 06:22:04;;;;;;;0.73;0.73;;;;;;;;;;5133239;27;20199;-68
2022/10/15 06:24:31;;;;;;;0.73;0.73;;;;;;;;;;5141034;27;20249;-67
2022/10/15 06:26:59;;;;;;;0.80;0.80;;;;;;;;;;5141136;27;20269;-68
2022/10/15 06:29:26;;;;;;;0.90;0.90;;;;;;;;;;5141862;27;20202;-66
2022/10/15 06:31:54;;;;;;;0.88;0.70;;;;;;;;;;5141013;27;20283;-67
2022/10/15 06:34:22;;;;;;;0.70;0.70;;;;;;;;;;5140496;27;20289;-67
2022/10/15 06:36:51;;;;;;;2.33;0.98;;;;;;;;;;5140859;27;20277;-67
2022/10/15 06:39:19;;;;;;;1.13;0.60;;;;;;;;;;5131499;27;20311;-67
2022/10/15 06:41:46;;;;;;;0.70;0.70;;;;;;;;;;5110256;28;20207;-67
2022/10/15 06:44:14;;;;;;;0.73;0.73;;;;;;;;;;5120517;28;20252;-67
2022/10/15 06:46:41;;;;;;;0.80;0.80;;;;;;;;;;5121007;28;20234;-68
2022/10/15 06:49:09;;;;;;;1.05;0.73;;;;;;;;;;5120787;28;20203;-67
2022/10/15 06:51:37;;;;;;;0.82;0.80;;;;;;;;;;5120945;28;20666;-67
2022/10/15 06:54:06;;;;;;;1.48;0.85;;;;;;;;;;5120136;28;20711;-68
2022/10/15 06:56:33;;;;;;;0.70;0.70;;;;;;;;;;5119875;28;20249;-67
2022/10/15 06:59:01;;;;;;;0.80;0.80;;;;;;;;;;5120490;28;20235;-68
2022/10/15 07:01:28;;;;;;;0.85;0.85;;;;;;;;;;5125053;27;20595;-67
2022/10/15 07:03:55;;;;;;;1.08;0.77;;;;;;;;;;5140254;27;20206;-68
2022/10/15 07:06:24;;;;;;;0.98;0.75;;;;;;;;;;5140329;27;20543;-67
2022/10/15 07:08:52;;;;;;;0.70;0.70;;;;;;;;;;5139555;27;20259;-67
2022/10/15 07:11:21;;;;;;;1.45;1.00;;;;;;;;;;5132871;27;20263;-67
2022/10/15 07:13:49;;;;;;;0.80;0.80;;;;;;;;;;5138448;27;20293;-67
2022/10/15 07:16:16;;;;;;;0.73;0.73;;;;;;;;;;5140670;27;20309;-67
2022/10/15 07:18:44;;;;;;;0.90;0.90;;;;;;;;;;5140614;27;20206;-68
2022/10/15 07:21:12;;;;;;;2.85;1.02;;;;;;;;;;5139140;27;20237;-67
2022/10/15 07:23:39;;;;;;;1.17;0.90;;;;;;;;;;5139521;27;20234;-68
2022/10/15 07:26:07;;;;;;;1.08;0.70;;;;;;;;;;5139997;27;20286;-67
2022/10/15 07:28:36;;;;;;;0.93;0.70;;;;;;;;;;5139132;27;20198;-68
2022/10/15 07:31:04;;;;;;;1.02;0.95;;;;;;;;;;5123400;27;20202;-68
2022/10/15 07:33:33;;;;;;;0.93;0.80;;;;;;;;;;5139671;27;20273;-69
2022/10/15 07:36:03;;;;;;;0.70;0.70;;;;;;;;;;5139380;27;20292;-68
2022/10/15 07:38:31;;;;;;;1.58;0.60;;;;;;;;;;5139501;27;20241;-67
2022/10/15 07:40:59;;;;;;;0.75;0.75;;;;;;;;;;5139635;27;20296;-68
2022/10/15 07:43:27;;;;;;;1.17;0.70;;;;;;;;;;5139225;27;20198;-68
2022/10/15 07:45:56;;;;;;;1.17;0.95;;;;;;;;;;5139822;27;20256;-68
2022/10/15 07:48:25;;;;;;;0.80;0.70;;;;;;;;;;5139810;27;20669;-68
2022/10/15 07:50:56;;;;;;;1.50;0.90;;;;;;;;;;5139314;27;20202;-68
2022/10/15 07:53:23;;;;;;;0.82;0.70;;;;;;;;;;5139752;27;20308;-68
2022/10/15 07:55:50;;;;;;;0.85;0.70;;;;;;;;;;5138869;27;20251;-67
2022/10/15 07:58:18;;;;;;;1.10;0.90;;;;;;;;;;5134910;27;20247;-68
2022/10/15 08:00:46;;;;;;;0.70;0.65;;;;;;;;;;5134971;27;21693;-67
2022/10/15 08:03:15;;;;;;;1.10;1.00;;;;;;;;;;5138336;27;20207;-68
2022/10/15 08:05:43;;;;;;;0.63;0.60;;;;;;;;;;5138750;27;20557;-67
2022/10/15 08:08:11;;;;;;;0.70;0.70;;;;;;;;;;5138422;27;20251;-67
2022/10/15 08:10:38;;;;;;;0.75;0.70;;;;;;;;;;5138185;27;20582;-67
2022/10/15 08:13:05;;;;;;;0.75;0.75;;;;;;;;;;5138811;27;20266;-68
2022/10/15 08:15:33;;;;;;;1.35;0.70;;;;;;;;;;5137667;27;20259;-68
2022/10/15 08:18:00;;;;;;;1.58;0.98;;;;;;;;;;5138288;27;20233;-68
2022/10/15 08:20:29;;;;;;;0.95;0.80;;;;;;;;;;5138473;27;20202;-68
2022/10/15 08:22:57;;;;;;;0.70;0.70;;;;;;;;;;5138160;27;20226;-67
2022/10/15 08:25:24;;;;;;;1.60;0.80;;;;;;;;;;5136762;27;20685;-68
2022/10/15 08:27:53;;;;;;;1.02;0.80;;;;;;;;;;5137634;27;20344;-68
2022/10/15 08:30:21;;;;;;;1.40;0.70;;;;;;;;;;5137131;27;20766;-68
2022/10/15 08:32:48;;;;;;;1.08;0.70;;;;;;;;;;5136014;27;20286;-68
2022/10/15 08:35:16;;;;;;;1.67;0.68;;;;;;;;;;5137750;27;20620;-68
2022/10/15 08:37:45;;;;;;;1.48;0.60;;;;;;;;;;5137250;27;20206;-68
2022/10/15 08:40:13;;;;;;;0.70;0.70;;;;;;;;;;5137470;27;20235;-68
2022/10/15 08:42:42;;;;;;;1.77;0.70;;;;;;;;;;5137511;27;20202;-68
2022/10/15 08:45:13;;;;;;;0.80;0.80;;;;;;;;;;5137479;27;20263;-68
2022/10/15 08:47:42;;;;;;;0.70;0.70;;;;;;;;;;5137764;27;20771;-68
2022/10/15 08:50:18;;;;;;;1.15;0.80;;;;;;;;;;5137491;27;20492;-67
2022/10/15 08:52:48;;;;;;;0.77;0.70;;;;;;;;;;5136501;27;20645;-67
2022/10/15 08:55:17;;;;;;;0.93;0.70;;;;;;;;;;5136521;27;20372;-67
2022/10/15 08:57:46;;;;;;;0.95;0.85;;;;;;;;;;5137578;27;20297;-67
2022/10/15 09:00:17;;;;;;;0.88;0.60;;;;;;;;;;5136777;27;20313;-68
2022/10/15 09:02:48;;;;;;;2.00;0.75;;;;;;;;;;5137008;27;20208;-67
2022/10/15 09:05:25;;;;;;;3.97;0.77;;;;;;;;;;5136263;27;20233;-67
2022/10/15 09:07:57;;;;;;;2.00;0.75;;;;;;;;;;5136930;27;20293;-69
2022/10/15 09:10:32;;;;;;;2.38;0.80;;;;;;;;;;5136914;27;20198;-68
2022/10/15 09:13:03;;;;;;;1.77;0.80;;;;;;;;;;5136990;27;20233;-68
2022/10/15 09:15:33;;;;;;;1.00;0.60;;;;;;;;;;5136564;27;20247;-68
2022/10/15 09:18:00;;;;;;;0.90;0.55;;;;;;;;;;5137652;27;20237;-68
2022/10/15 09:20:31;;;;;;;0.82;0.60;;;;;;;;;;5134966;27;20266;-68
2022/10/15 09:23:01;;;;;;;0.70;0.50;;;;;;;;;;5136619;27;20241;-68
2022/10/15 09:25:32;;;;;;;2.78;0.60;;;;;;;;;;5136592;27;20202;-67
2022/10/15 09:28:01;;;;;;;2.40;0.70;;;;;;;;;;5136924;27;20280;-67
2022/10/15 09:30:34;;;;;;;1.25;0.68;;;;;;;;;;5136411;27;20271;-67
2022/10/15 09:33:06;;;;;;;1.48;0.60;;;;;;;;;;5135952;27;20218;-68
2022/10/15 09:35:37;;;;;;;2.60;0.73;;;;;;;;;;5137286;28;20270;-67
2022/10/15 09:38:16;;;;;;;0.85;0.70;;;;;;;;;;5136478;28;20248;-68
2022/10/15 09:40:50;;;;;;;1.30;0.68;;;;;;;;;;5135840;28;20256;-68
2022/10/15 09:43:22;;;;;;;2.15;0.80;;;;;;;;;;5137436;27;20197;-67
2022/10/15 09:45:50;;;;;;;1.50;0.63;;;;;;;;;;5139905;27;20210;-67
2022/10/15 09:48:19;;;;;;;1.02;0.60;;;;;;;;;;5140158;27;20293;-67
2022/10/15 09:50:50;;;;;;;1.90;0.60;;;;;;;;;;5140636;27;20241;-68
2022/10/15 09:53:24;;;;;;;1.73;0.80;;;;;;;;;;5140411;27;20226;-68
2022/10/15 09:55:54;;;;;;;0.65;0.63;;;;;;;;;;5140742;27;20212;-68
2022/10/15 09:58:23;;;;;;;0.70;0.70;;;;;;;;;;5139858;27;20294;-68
2022/10/15 10:00:54;;;;;;;1.73;0.73;;;;;;;;;;5137950;27;20238;-67
2022/10/15 10:03:23;;;;;;;0.80;0.65;;;;;;;;;;5140690;27;20634;-68
2022/10/15 10:05:51;;;;;;;1.15;0.80;;;;;;;;;;5139685;27;20292;-68
2022/10/15 10:08:21;;;;;;;1.70;0.70;;;;;;;;;;5139598;27;20257;-67
2022/10/15 10:10:55;;;;;;;1.02;0.47;;;;;;;;;;5140357;27;20210;-68
2022/10/15 10:13:24;;;;;;;1.98;0.60;;;;;;;;;;5140231;27;20257;-68
2022/10/15 10:15:53;;;;;;;0.93;0.50;;;;;;;;;;5139535;27;20203;-68
2022/10/15 10:18:21;;;;;;;1.75;0.70;;;;;;;;;;5139879;27;20406;-68
2022/10/15 10:20:53;;;;;;;1.58;0.50;;;;;;;;;;5139939;27;20203;-68
2022/10/15 10:23:24;;;;;;;1.77;0.70;;;;;;;;;;5140269;27;20240;-69
2022/10/15 10:25:51;;;;;;;1.88;0.80;;;;;;;;;;5139389;27;20657;-68
2022/10/15 10:28:22;;;;;;;1.75;0.68;;;;;;;;;;5139153;27;20259;-69
2022/10/15 10:30:54;;;;;;;1.75;0.60;;;;;;;;;;5138597;27;20452;-68
2022/10/15 10:33:26;;;;;;;1.52;0.77;;;;;;;;;;5139710;27;20262;-68
2022/10/15 10:35:53;;;;;;;7.90;1.15;;;;;;;;;;5139762;27;20301;-69
2022/10/15 10:38:23;;;;;;;1.42;0.60;;;;;;;;;;5140158;27;20288;-69
2022/10/15 10:40:51;;;;;;;0.68;0.68;;;;;;;;;;5140133;27;20206;-69
2022/10/15 10:43:23;;;;;;;1.65;0.75;;;;;;;;;;5139650;27;20198;-68
2022/10/15 10:45:57;;;;;;;4.00;0.70;;;;;;;;;;5139962;27;20206;-69
2022/10/15 10:48:26;;;;;;;1.50;0.63;;;;;;;;;;5139421;27;20229;-68
2022/10/15 10:51:04;;;;;;;1.58;0.80;;;;;;;;;;5139887;27;20202;-68
2022/10/15 10:53:35;;;;;;;1.42;0.75;;;;;;;;;;5140082;27;20265;-69
2022/10/15 10:56:02;;;;;;;0.90;0.57;;;;;;;;;;5137111;27;20285;-68
2022/10/15 10:58:31;;;;;;;1.55;0.60;;;;;;;;;;5138513;27;20255;-69
2022/10/15 11:00:59;;;;;;;0.60;0.55;;;;;;;;;;5139172;27;20305;-68
2022/10/15 11:03:35;;;;;;;0.70;0.60;;;;;;;;;;5139138;27;20649;-68
2022/10/15 11:06:09;;;;;;;1.25;0.70;;;;;;;;;;5138297;27;20230;-68
2022/10/15 11:08:44;;;;;;;1.20;0.80;;;;;;;;;;5136336;27;20225;-68
2022/10/15 11:11:14;;;;;;;1.08;0.68;;;;;;;;;;5134480;27;20228;-68
2022/10/15 11:13:51;;;;;;;0.73;0.60;;;;;;;;;;5137537;27;20225;-69
2022/10/15 11:16:24;;;;;;;2.50;0.63;;;;;;;;;;5137927;27;20288;-69
2022/10/15 11:18:57;;;;;;;1.27;0.60;;;;;;;;;;5120880;27;20238;-69
2022/10/15 11:21:29;;;;;;;1.83;0.70;;;;;;;;;;5139173;27;20238;-69
2022/10/15 11:24:14;;;;;;;1.00;0.60;;;;;;;;;;5132664;27;20241;-68
2022/10/15 11:26:49;;;;;;;1.38;0.60;;;;;;;;;;5136689;27;20352;-69
2022/10/15 11:29:21;;;;;;;2.15;0.50;;;;;;;;;;5117039;28;20238;-69
2022/10/15 11:31:52;;;;;;;1.15;0.60;;;;;;;;;;5134960;27;20198;-69
2022/10/15 11:34:26;;;;;;;0.82;0.57;;;;;;;;;;5138029;27;20312;-68
2022/10/15 11:36:59;;;;;;;0.65;0.60;;;;;;;;;;5137589;27;20229;-69
2022/10/15 11:39:44;;;;;;;1.77;0.77;;;;;;;;;;5135418;27;20653;-70
2022/10/15 11:42:17;;;;;;;0.50;0.50;;;;;;;;;;5103571;27;20225;-68
2022/10/15 11:45:03;;;;;;;1.15;0.55;;;;;;;;;;5136347;27;20199;-68
2022/10/15 11:47:37;;;;;;;1.25;0.60;;;;;;;;;;5113032;28;20229;-68
2022/10/15 11:50:12;;;;;;;1.42;0.60;;;;;;;;;;5117503;28;20252;-68
2022/10/15 11:52:46;;;;;;;0.90;0.60;;;;;;;;;;5134215;27;20284;-68
2022/10/15 11:55:18;;;;;;;1.95;0.55;;;;;;;;;;5137769;27;20494;-68
2022/10/15 11:57:48;;;;;;;0.95;0.43;;;;;;;;;;5136492;27;20209;-68
2022/10/15 12:00:20;;;;;;;1.25;0.50;;;;;;;;;;5137218;27;20301;-68
2022/10/15 12:02:48;;;;;;;0.70;0.60;;;;;;;;;;5135534;27;20225;-68
2022/10/15 12:05:18;;;;;;;0.60;0.60;;;;;;;;;;5137195;27;20609;-68
2022/10/15 12:07:48;;;;;;;0.82;0.40;;;;;;;;;;5135207;27;20191;-68
2022/10/15 12:10:22;;;;;;;2.35;0.70;;;;;;;;;;5136190;27;20237;-68
2022/10/15 12:12:56;;;;;;;1.25;0.60;;;;;;;;;;5135964;27;20262;-69
2022/10/15 12:15:28;;;;;;;1.88;0.52;;;;;;;;;;5137384;27;20309;-67
2022/10/15 12:18:00;;;;;;;0.80;0.68;;;;;;;;;;5136577;27;20194;-68
2022/10/15 12:20:28;;;;;;;1.60;0.70;;;;;;;;;;5136417;27;20251;-68
2022/10/15 12:22:57;;;;;;;1.50;0.60;;;;;;;;;;5136664;27;20202;-68
2022/10/15 12:25:47;;;;;;;2.42;0.47;;;;;;;;;;5136330;27;20234;-68
2022/10/15 12:28:18;;;;;;;1.02;0.50;;;;;;;;;;5135846;27;20688;-67
2022/10/15 12:30:54;;;;;;;1.45;0.60;;;;;;;;;;5135751;27;20194;-67
2022/10/15 12:33:24;;;;;;;0.40;0.40;;;;;;;;;;5134145;27;20803;-67
2022/10/15 12:35:54;;;;;;;1.30;0.60;;;;;;;;;;5136840;27;20281;-67
2022/10/15 12:38:25;;;;;;;2.60;0.50;;;;;;;;;;5136196;27;20600;-68
2022/10/15 12:40:57;;;;;;;0.88;0.45;;;;;;;;;;5136953;27;20301;-68
2022/10/15 12:43:27;;;;;;;0.90;0.40;;;;;;;;;;5136782;27;20261;-68
2022/10/15 12:45:55;;;;;;;1.40;0.50;;;;;;;;;;5136280;27;20697;-68
2022/10/15 12:48:33;;;;;;;1.05;0.50;;;;;;;;;;5136526;27;20224;-68
2022/10/15 12:51:19;;;;;;;0.77;0.60;;;;;;;;;;5136456;27;20255;-68
2022/10/15 12:53:47;;;;;;;1.25;0.60;;;;;;;;;;5136010;27;20325;-68
2022/10/15 12:56:23;;;;;;;0.85;0.50;;;;;;;;;;5136448;27;20285;-68
2022/10/15 12:58:52;;;;;;;0.68;0.40;;;;;;;;;;5136877;27;20209;-67
2022/10/15 13:01:29;;;;;;;0.63;0.55;;;;;;;;;;5135222;27;20195;-69
2022/10/15 13:03:57;;;;;;;0.70;0.60;;;;;;;;;;5134471;27;20288;-68
2022/10/15 13:06:27;;;;;;;0.80;0.60;;;;;;;;;;5133334;27;20281;-68
2022/10/15 13:08:58;;;;;;;0.93;0.45;;;;;;;;;;5135847;27;20197;-68
2022/10/15 13:11:29;;;;;;;0.82;0.50;;;;;;;;;;5128279;27;20195;-68
2022/10/15 13:13:59;;;;;;;0.52;0.50;;;;;;;;;;5126846;27;20287;-69
2022/10/15 13:16:27;;;;;;;1.02;0.52;;;;;;;;;;5130441;27;20275;-67
2022/10/15 13:18:57;;;;;;;0.75;0.57;;;;;;;;;;5126118;27;20250;-68
2022/10/15 13:21:48;;;;;;;1.75;0.50;;;;;;;;;;5114230;28;20243;-68
2022/10/15 13:24:18;;;;;;;0.65;0.50;;;;;;;;;;5115294;28;20248;-68
2022/10/15 13:26:46;;;;;;;1.30;0.57;;;;;;;;;;5114888;28;20227;-68
2022/10/15 13:29:17;;;;;;;0.82;0.60;;;;;;;;;;5108130;28;20772;-68
2022/10/15 13:31:46;;;;;;;1.00;0.50;;;;;;;;;;5115500;28;20498;-69
2022/10/15 13:34:16;;;;;;;2.63;0.70;;;;;;;;;;5115119;28;20322;-68
2022/10/15 13:36:45;;;;;;;1.85;0.60;;;;;;;;;;5115788;28;20301;-67
2022/10/15 13:39:23;;;;;;;1.88;0.80;;;;;;;;;;5115510;28;20302;-68
2022/10/15 13:41:50;;;;;;;1.30;0.60;;;;;;;;;;5115562;28;20234;-68
2022/10/15 13:44:23;;;;;;;1.90;0.70;;;;;;;;;;5135081;27;20657;-69
2022/10/15 13:46:51;;;;;;;1.58;0.50;;;;;;;;;;5134432;27;20245;-67
2022/10/15 13:49:19;;;;;;;1.33;0.60;;;;;;;;;;5135681;27;20241;-68
2022/10/15 13:51:47;;;;;;;1.35;0.65;;;;;;;;;;5136147;27;20488;-67
2022/10/15 13:54:17;;;;;;;1.02;0.60;;;;;;;;;;5135007;27;20309;-68
2022/10/15 13:56:45;;;;;;;0.60;0.50;;;;;;;;;;5134344;27;20220;-68
2022/10/15 13:59:17;;;;;;;1.67;0.75;;;;;;;;;;5135307;27;20291;-68
2022/10/15 14:01:48;;;;;;;1.20;0.60;;;;;;;;;;5135906;27;20202;-67
2022/10/15 14:04:17;;;;;;;1.10;0.60;;;;;;;;;;5136480;27;20622;-67
2022/10/15 14:06:52;;;;;;;1.38;0.50;;;;;;;;;;5133342;27;20233;-68
2022/10/15 14:09:23;;;;;;;0.60;0.50;;;;;;;;;;5134093;27;20251;-67
2022/10/15 14:11:50;;;;;;;1.33;0.60;;;;;;;;;;5135393;27;20204;-68
2022/10/15 14:14:28;;;;;;;0.60;0.60;;;;;;;;;;5134922;27;20637;-68
2022/10/15 14:16:58;;;;;;;1.15;0.50;;;;;;;;;;5135828;27;20202;-68
2022/10/15 14:19:28;;;;;;;0.57;0.57;;;;;;;;;;5135731;27;20264;-68
2022/10/15 14:21:56;;;;;;;0.70;0.68;;;;;;;;;;5135668;27;20202;-68
2022/10/15 14:24:25;;;;;;;0.70;0.60;;;;;;;;;;5135374;27;20199;-68
2022/10/15 14:26:53;;;;;;;0.50;0.50;;;;;;;;;;5135437;27;20328;-68
2022/10/15 14:29:23;;;;;;;1.48;0.57;;;;;;;;;;5135565;27;20202;-68
2022/10/15 14:31:51;;;;;;;0.60;0.60;;;;;;;;;;5139067;27;20253;-67
2022/10/15 14:34:30;;;;;;;0.82;0.60;;;;;;;;;;5138386;27;20309;-68
2022/10/15 14:36:58;;;;;;;1.52;0.60;;;;;;;;;;5139373;27;20284;-68
2022/10/15 14:39:30;;;;;;;0.95;0.50;;;;;;;;;;5139103;27;20203;-68
2022/10/15 14:41:59;;;;;;;0.50;0.50;;;;;;;;;;5139679;27;20493;-67
2022/10/15 14:44:26;;;;;;;0.93;0.60;;;;;;;;;;5139220;27;20251;-68
2022/10/15 14:47:00;;;;;;;1.02;0.55;;;;;;;;;;5139374;27;20229;-67
2022/10/15 14:49:29;;;;;;;0.93;0.50;;;;;;;;;;5139623;27;20198;-68
2022/10/15 14:52:01;;;;;;;1.05;0.70;;;;;;;;;;5139619;27;20206;-67
2022/10/15 14:54:34;;;;;;;0.88;0.65;;;;;;;;;;5139532;27;20784;-67
2022/10/15 14:57:01;;;;;;;0.95;0.70;;;;;;;;;;5130463;27;20209;-67
2022/10/15 14:59:31;;;;;;;1.25;0.60;;;;;;;;;;5139673;27;20263;-68